Terminal Aerodrome Forecast
Issued by NWS

Home | Current Version | Previous Version | Text Only | Print | Product List | Glossary Off
Versions: 1 2 3 4 5 6 7 8 9 10 11 12

000
FTUS43 KMPX 281700 AAB
TAFRWF
TAF AMD
KRWF 281708Z 2817/2912 35006KT P6SM SCT007 OVC100
     FM281900 36005KT P6SM SCT250
     FM290300 36006KT P6SM BKN060 OVC150=

USA.gov is the U.S. government's official web portal to all federal, state and local government web resources and services.